sensor_id;sensor_type;location;lat;lon;timestamp;P1;durP1;ratioP1;P2;durP2;ratioP2
75035;SDS011;64247;51.540;5.854;2022-10-16T00:01:40;6.28;;;3.85;;
75035;SDS011;64247;51.540;5.854;2022-10-16T00:03:42;5.95;;;3.63;;
75035;SDS011;64247;51.540;5.854;2022-10-16T00:05:44;4.78;;;3.30;;
75035;SDS011;64247;51.540;5.854;2022-10-16T00:07:45;6.57;;;3.70;;
75035;SDS011;64247;51.540;5.854;2022-10-16T00:09:46;6.60;;;3.70;;
75035;SDS011;64247;51.540;5.854;2022-10-16T00:11:47;5.93;;;3.72;;
75035;SDS011;64247;51.540;5.854;2022-10-16T00:13:49;7.20;;;3.90;;
75035;SDS011;64247;51.540;5.854;2022-10-16T00:15:55;7.22;;;4.03;;
75035;SDS011;64247;51.540;5.854;2022-10-16T00:17:58;5.53;;;3.22;;
75035;SDS011;64247;51.540;5.854;2022-10-16T00:19:59;6.05;;;4.20;;
75035;SDS011;64247;51.540;5.854;2022-10-16T00:22:00;7.15;;;4.20;;
75035;SDS011;64247;51.540;5.854;2022-10-16T00:24:02;6.85;;;2.92;;
75035;SDS011;64247;51.540;5.854;2022-10-16T00:26:09;4.45;;;3.22;;
75035;SDS011;64247;51.540;5.854;2022-10-16T00:28:13;7.35;;;3.53;;
75035;SDS011;64247;51.540;5.854;2022-10-16T00:30:14;5.65;;;3.20;;
75035;SDS011;64247;51.540;5.854;2022-10-16T00:32:15;6.25;;;4.82;;
75035;SDS011;64247;51.540;5.854;2022-10-16T00:34:16;6.80;;;3.03;;
75035;SDS011;64247;51.540;5.854;2022-10-16T00:36:18;5.38;;;3.00;;
75035;SDS011;64247;51.540;5.854;2022-10-16T00:38:23;4.20;;;2.70;;
75035;SDS011;64247;51.540;5.854;2022-10-16T00:40:24;5.15;;;3.10;;
75035;SDS011;64247;51.540;5.854;2022-10-16T00:42:25;4.53;;;3.28;;
75035;SDS011;64247;51.540;5.854;2022-10-16T00:47:09;10.48;;;4.22;;
75035;SDS011;64247;51.540;5.854;2022-10-16T00:49:18;4.72;;;3.15;;
75035;SDS011;64247;51.540;5.854;2022-10-16T00:51:21;5.90;;;2.90;;
75035;SDS011;64247;51.540;5.854;2022-10-16T00:53:28;5.80;;;3.28;;
75035;SDS011;64247;51.540;5.854;2022-10-16T00:55:30;4.55;;;2.75;;
75035;SDS011;64247;51.540;5.854;2022-10-16T00:57:31;4.72;;;3.13;;
75035;SDS011;64247;51.540;5.854;2022-10-16T00:59:34;4.72;;;2.70;;
75035;SDS011;64247;51.540;5.854;2022-10-16T01:01:41;4.85;;;3.00;;
75035;SDS011;64247;51.540;5.854;2022-10-16T01:03:42;3.13;;;2.80;;
75035;SDS011;64247;51.540;5.854;2022-10-16T01:05:44;3.58;;;2.40;;
75035;SDS011;64247;51.540;5.854;2022-10-16T01:10:48;4.80;;;3.17;;
75035;SDS011;64247;51.540;5.854;2022-10-16T01:13:36;5.55;;;2.63;;
75035;SDS011;64247;51.540;5.854;2022-10-16T01:15:47;6.43;;;2.90;;
75035;SDS011;64247;51.540;5.854;2022-10-16T01:18:06;5.72;;;2.85;;
75035;SDS011;64247;51.540;5.854;2022-10-16T01:29:22;8.00;;;3.22;;
75035;SDS011;64247;51.540;5.854;2022-10-16T01:31:40;4.93;;;3.17;;
75035;SDS011;64247;51.540;5.854;2022-10-16T01:33:51;4.57;;;3.03;;
75035;SDS011;64247;51.540;5.854;2022-10-16T01:36:05;5.50;;;2.72;;
75035;SDS011;64247;51.540;5.854;2022-10-16T01:40:50;3.13;;;2.80;;
75035;SDS011;64247;51.540;5.854;2022-10-16T01:43:05;6.70;;;2.70;;
75035;SDS011;64247;51.540;5.854;2022-10-16T01:45:19;4.75;;;3.08;;
75035;SDS011;64247;51.540;5.854;2022-10-16T01:47:22;3.53;;;2.67;;
75035;SDS011;64247;51.540;5.854;2022-10-16T01:49:30;4.28;;;3.53;;
75035;SDS011;64247;51.540;5.854;2022-10-16T01:51:35;4.53;;;2.78;;
75035;SDS011;64247;51.540;5.854;2022-10-16T01:53:38;4.32;;;2.70;;
75035;SDS011;64247;51.540;5.854;2022-10-16T01:55:44;5.85;;;2.65;;
75035;SDS011;64247;51.540;5.854;2022-10-16T01:57:49;5.22;;;2.90;;
75035;SDS011;64247;51.540;5.854;2022-10-16T01:59:54;5.32;;;3.08;;
75035;SDS011;64247;51.540;5.854;2022-10-16T02:02:24;6.00;;;3.10;;
75035;SDS011;64247;51.540;5.854;2022-10-16T02:06:36;3.58;;;2.42;;
75035;SDS011;64247;51.540;5.854;2022-10-16T02:08:37;2.78;;;2.38;;
75035;SDS011;64247;51.540;5.854;2022-10-16T02:10:40;5.30;;;2.60;;
75035;SDS011;64247;51.540;5.854;2022-10-16T02:12:43;2.45;;;2.25;;
75035;SDS011;64247;51.540;5.854;2022-10-16T02:14:52;4.85;;;2.42;;
75035;SDS011;64247;51.540;5.854;2022-10-16T02:16:53;4.43;;;2.47;;
75035;SDS011;64247;51.540;5.854;2022-10-16T02:18:56;3.30;;;2.47;;
75035;SDS011;64247;51.540;5.854;2022-10-16T02:20:58;2.95;;;1.88;;
75035;SDS011;64247;51.540;5.854;2022-10-16T02:23:06;2.45;;;2.25;;
75035;SDS011;64247;51.540;5.854;2022-10-16T02:25:19;3.85;;;2.17;;
75035;SDS011;64247;51.540;5.854;2022-10-16T02:30:20;2.42;;;1.75;;
75035;SDS011;64247;51.540;5.854;2022-10-16T02:34:34;2.38;;;2.00;;
75035;SDS011;64247;51.540;5.854;2022-10-16T02:36:38;2.17;;;1.92;;
75035;SDS011;64247;51.540;5.854;2022-10-16T02:38:42;5.75;;;2.10;;
75035;SDS011;64247;51.540;5.854;2022-10-16T02:40:44;2.70;;;2.00;;
75035;SDS011;64247;51.540;5.854;2022-10-16T02:42:49;2.45;;;2.17;;
75035;SDS011;64247;51.540;5.854;2022-10-16T02:44:52;4.57;;;2.33;;
75035;SDS011;64247;51.540;5.854;2022-10-16T02:46:53;6.55;;;1.90;;
75035;SDS011;64247;51.540;5.854;2022-10-16T02:48:54;3.22;;;1.70;;
75035;SDS011;64247;51.540;5.854;2022-10-16T02:50:55;4.82;;;2.15;;
75035;SDS011;64247;51.540;5.854;2022-10-16T02:52:57;4.07;;;1.75;;
75035;SDS011;64247;51.540;5.854;2022-10-16T02:54:58;2.20;;;1.90;;
75035;SDS011;64247;51.540;5.854;2022-10-16T02:56:59;4.75;;;2.10;;
75035;SDS011;64247;51.540;5.854;2022-10-16T02:58:59;1.92;;;1.77;;
75035;SDS011;64247;51.540;5.854;2022-10-16T03:01:00;3.85;;;2.10;;
75035;SDS011;64247;51.540;5.854;2022-10-16T03:03:01;2.55;;;2.25;;
75035;SDS011;64247;51.540;5.854;2022-10-16T03:05:02;2.42;;;1.70;;
75035;SDS011;64247;51.540;5.854;2022-10-16T03:07:04;3.85;;;1.83;;
75035;SDS011;64247;51.540;5.854;2022-10-16T03:09:05;3.05;;;1.90;;
75035;SDS011;64247;51.540;5.854;2022-10-16T03:11:06;2.53;;;2.33;;
75035;SDS011;64247;51.540;5.854;2022-10-16T03:13:07;3.80;;;2.20;;
75035;SDS011;64247;51.540;5.854;2022-10-16T03:15:08;2.35;;;1.73;;
75035;SDS011;64247;51.540;5.854;2022-10-16T03:17:09;3.03;;;2.00;;
75035;SDS011;64247;51.540;5.854;2022-10-16T03:19:10;2.03;;;1.83;;
75035;SDS011;64247;51.540;5.854;2022-10-16T03:21:11;2.33;;;1.98;;
75035;SDS011;64247;51.540;5.854;2022-10-16T03:23:12;2.53;;;1.80;;
75035;SDS011;64247;51.540;5.854;2022-10-16T03:25:13;2.78;;;1.95;;
75035;SDS011;64247;51.540;5.854;2022-10-16T03:27:14;3.40;;;2.03;;
75035;SDS011;64247;51.540;5.854;2022-10-16T03:29:15;2.80;;;1.95;;
75035;SDS011;64247;51.540;5.854;2022-10-16T03:31:16;5.07;;;2.15;;
75035;SDS011;64247;51.540;5.854;2022-10-16T03:33:17;1.80;;;1.60;;
75035;SDS011;64247;51.540;5.854;2022-10-16T03:35:18;2.40;;;1.40;;
75035;SDS011;64247;51.540;5.854;2022-10-16T03:37:18;2.53;;;1.98;;
75035;SDS011;64247;51.540;5.854;2022-10-16T03:39:20;3.55;;;2.00;;
75035;SDS011;64247;51.540;5.854;2022-10-16T03:41:21;1.95;;;1.83;;
75035;SDS011;64247;51.540;5.854;2022-10-16T03:43:21;2.88;;;1.88;;
75035;SDS011;64247;51.540;5.854;2022-10-16T03:45:23;2.22;;;2.03;;
75035;SDS011;64247;51.540;5.854;2022-10-16T03:47:24;2.00;;;1.33;;
75035;SDS011;64247;51.540;5.854;2022-10-16T03:49:25;4.15;;;1.80;;
75035;SDS011;64247;51.540;5.854;2022-10-16T03:51:26;2.75;;;2.00;;
75035;SDS011;64247;51.540;5.854;2022-10-16T03:53:27;3.60;;;1.85;;
75035;SDS011;64247;51.540;5.854;2022-10-16T03:55:28;1.65;;;1.55;;
75035;SDS011;64247;51.540;5.854;2022-10-16T03:57:29;2.33;;;1.80;;
75035;SDS011;64247;51.540;5.854;2022-10-16T03:59:30;1.80;;;1.35;;
75035;SDS011;64247;51.540;5.854;2022-10-16T04:01:31;2.70;;;1.55;;
75035;SDS011;64247;51.540;5.854;2022-10-16T04:03:32;4.88;;;2.08;;
75035;SDS011;64247;51.540;5.854;2022-10-16T04:05:33;5.05;;;1.98;;
75035;SDS011;64247;51.540;5.854;2022-10-16T04:07:34;2.17;;;1.73;;
75035;SDS011;64247;51.540;5.854;2022-10-16T04:09:35;1.70;;;1.60;;
75035;SDS011;64247;51.540;5.854;2022-10-16T04:11:36;3.05;;;1.70;;
75035;SDS011;64247;51.540;5.854;2022-10-16T04:13:37;3.25;;;1.92;;
75035;SDS011;64247;51.540;5.854;2022-10-16T04:15:38;3.45;;;1.95;;
75035;SDS011;64247;51.540;5.854;2022-10-16T04:17:39;1.73;;;1.45;;
75035;SDS011;64247;51.540;5.854;2022-10-16T04:19:40;2.33;;;2.00;;
75035;SDS011;64247;51.540;5.854;2022-10-16T04:21:41;2.08;;;1.85;;
75035;SDS011;64247;51.540;5.854;2022-10-16T04:23:42;1.90;;;1.75;;
75035;SDS011;64247;51.540;5.854;2022-10-16T04:25:43;2.30;;;1.80;;
75035;SDS011;64247;51.540;5.854;2022-10-16T04:27:44;2.10;;;1.63;;
75035;SDS011;64247;51.540;5.854;2022-10-16T04:29:45;2.95;;;1.38;;
75035;SDS011;64247;51.540;5.854;2022-10-16T04:31:46;3.40;;;2.03;;
75035;SDS011;64247;51.540;5.854;2022-10-16T04:33:47;2.75;;;1.67;;
75035;SDS011;64247;51.540;5.854;2022-10-16T04:35:48;3.42;;;1.55;;
75035;SDS011;64247;51.540;5.854;2022-10-16T04:37:57;1.63;;;1.50;;
75035;SDS011;64247;51.540;5.854;2022-10-16T04:39:58;2.60;;;1.70;;
75035;SDS011;64247;51.540;5.854;2022-10-16T04:41:59;3.42;;;2.05;;
75035;SDS011;64247;51.540;5.854;2022-10-16T04:44:00;2.33;;;1.88;;
75035;SDS011;64247;51.540;5.854;2022-10-16T04:46:01;4.57;;;1.65;;
75035;SDS011;64247;51.540;5.854;2022-10-16T04:48:04;2.05;;;1.58;;
75035;SDS011;64247;51.540;5.854;2022-10-16T04:50:05;2.95;;;1.73;;
75035;SDS011;64247;51.540;5.854;2022-10-16T04:52:07;2.10;;;1.42;;
75035;SDS011;64247;51.540;5.854;2022-10-16T04:54:09;1.52;;;1.38;;
75035;SDS011;64247;51.540;5.854;2022-10-16T04:56:11;3.38;;;1.42;;
75035;SDS011;64247;51.540;5.854;2022-10-16T04:58:12;2.60;;;1.50;;
75035;SDS011;64247;51.540;5.854;2022-10-16T05:00:13;4.65;;;1.70;;
75035;SDS011;64247;51.540;5.854;2022-10-16T05:02:14;2.85;;;1.73;;
75035;SDS011;64247;51.540;5.854;2022-10-16T05:04:15;2.17;;;1.40;;
75035;SDS011;64247;51.540;5.854;2022-10-16T05:06:16;2.33;;;1.55;;
75035;SDS011;64247;51.540;5.854;2022-10-16T05:08:17;2.65;;;1.40;;
75035;SDS011;64247;51.540;5.854;2022-10-16T05:10:18;2.85;;;1.70;;
75035;SDS011;64247;51.540;5.854;2022-10-16T05:12:19;2.60;;;1.38;;
75035;SDS011;64247;51.540;5.854;2022-10-16T05:14:20;2.17;;;1.98;;
75035;SDS011;64247;51.540;5.854;2022-10-16T05:16:21;2.05;;;1.90;;
75035;SDS011;64247;51.540;5.854;2022-10-16T05:18:22;1.70;;;1.33;;
75035;SDS011;64247;51.540;5.854;2022-10-16T05:20:23;2.78;;;1.73;;
75035;SDS011;64247;51.540;5.854;2022-10-16T05:22:24;3.10;;;1.63;;
75035;SDS011;64247;51.540;5.854;2022-10-16T05:24:25;6.07;;;2.65;;
75035;SDS011;64247;51.540;5.854;2022-10-16T05:26:27;2.22;;;1.52;;
75035;SDS011;64247;51.540;5.854;2022-10-16T05:28:28;3.35;;;1.70;;
75035;SDS011;64247;51.540;5.854;2022-10-16T05:30:30;2.05;;;1.70;;
75035;SDS011;64247;51.540;5.854;2022-10-16T05:32:31;2.20;;;1.58;;
75035;SDS011;64247;51.540;5.854;2022-10-16T05:34:32;3.90;;;1.90;;
75035;SDS011;64247;51.540;5.854;2022-10-16T05:36:33;2.80;;;1.60;;
75035;SDS011;64247;51.540;5.854;2022-10-16T05:38:34;1.83;;;1.38;;
75035;SDS011;64247;51.540;5.854;2022-10-16T05:40:36;6.85;;;2.08;;
75035;SDS011;64247;51.540;5.854;2022-10-16T05:42:38;1.85;;;1.33;;
75035;SDS011;64247;51.540;5.854;2022-10-16T05:44:40;2.17;;;1.75;;
75035;SDS011;64247;51.540;5.854;2022-10-16T05:46:40;2.13;;;1.80;;
75035;SDS011;64247;51.540;5.854;2022-10-16T05:48:41;2.65;;;2.05;;
75035;SDS011;64247;51.540;5.854;2022-10-16T05:50:42;3.65;;;1.58;;
75035;SDS011;64247;51.540;5.854;2022-10-16T05:52:43;1.90;;;1.80;;
75035;SDS011;64247;51.540;5.854;2022-10-16T05:54:44;6.50;;;1.98;;
75035;SDS011;64247;51.540;5.854;2022-10-16T05:56:45;3.53;;;1.80;;
75035;SDS011;64247;51.540;5.854;2022-10-16T05:58:46;3.13;;;1.85;;
75035;SDS011;64247;51.540;5.854;2022-10-16T06:01:00;2.10;;;1.90;;
75035;SDS011;64247;51.540;5.854;2022-10-16T06:03:18;6.82;;;1.60;;
75035;SDS011;64247;51.540;5.854;2022-10-16T06:05:19;2.08;;;1.63;;
75035;SDS011;64247;51.540;5.854;2022-10-16T06:07:20;4.43;;;1.73;;
75035;SDS011;64247;51.540;5.854;2022-10-16T06:09:22;2.40;;;1.85;;
75035;SDS011;64247;51.540;5.854;2022-10-16T06:11:27;5.03;;;1.98;;
75035;SDS011;64247;51.540;5.854;2022-10-16T06:13:31;2.80;;;1.77;;
75035;SDS011;64247;51.540;5.854;2022-10-16T06:15:32;2.13;;;1.88;;
75035;SDS011;64247;51.540;5.854;2022-10-16T06:17:33;1.85;;;1.70;;
75035;SDS011;64247;51.540;5.854;2022-10-16T06:19:34;3.22;;;2.05;;
75035;SDS011;64247;51.540;5.854;2022-10-16T06:21:35;2.75;;;1.60;;
75035;SDS011;64247;51.540;5.854;2022-10-16T06:23:36;1.73;;;1.60;;
75035;SDS011;64247;51.540;5.854;2022-10-16T06:25:37;2.45;;;1.90;;
75035;SDS011;64247;51.540;5.854;2022-10-16T06:27:41;2.38;;;1.30;;
75035;SDS011;64247;51.540;5.854;2022-10-16T06:29:42;3.20;;;1.90;;
75035;SDS011;64247;51.540;5.854;2022-10-16T06:31:43;2.85;;;1.85;;
75035;SDS011;64247;51.540;5.854;2022-10-16T06:33:44;3.35;;;1.90;;
75035;SDS011;64247;51.540;5.854;2022-10-16T06:35:48;2.30;;;2.10;;
75035;SDS011;64247;51.540;5.854;2022-10-16T06:37:49;2.40;;;1.58;;
75035;SDS011;64247;51.540;5.854;2022-10-16T06:39:50;3.17;;;1.83;;
75035;SDS011;64247;51.540;5.854;2022-10-16T06:41:54;3.15;;;2.63;;
75035;SDS011;64247;51.540;5.854;2022-10-16T06:43:55;2.58;;;1.70;;
75035;SDS011;64247;51.540;5.854;2022-10-16T06:45:56;3.00;;;1.80;;
75035;SDS011;64247;51.540;5.854;2022-10-16T06:47:58;2.40;;;1.80;;
75035;SDS011;64247;51.540;5.854;2022-10-16T06:49:59;4.47;;;2.10;;
75035;SDS011;64247;51.540;5.854;2022-10-16T06:52:00;2.47;;;1.83;;
75035;SDS011;64247;51.540;5.854;2022-10-16T06:54:02;3.38;;;1.70;;
75035;SDS011;64247;51.540;5.854;2022-10-16T06:56:07;2.33;;;1.63;;
75035;SDS011;64247;51.540;5.854;2022-10-16T06:58:38;1.83;;;1.58;;
75035;SDS011;64247;51.540;5.854;2022-10-16T07:00:40;5.47;;;1.70;;
75035;SDS011;64247;51.540;5.854;2022-10-16T07:02:41;2.80;;;1.90;;
75035;SDS011;64247;51.540;5.854;2022-10-16T07:04:42;2.55;;;1.80;;
75035;SDS011;64247;51.540;5.854;2022-10-16T07:06:42;1.58;;;1.15;;
75035;SDS011;64247;51.540;5.854;2022-10-16T07:08:44;1.25;;;1.10;;
75035;SDS011;64247;51.540;5.854;2022-10-16T07:10:47;2.63;;;1.60;;
75035;SDS011;64247;51.540;5.854;2022-10-16T07:12:48;2.80;;;1.80;;
75035;SDS011;64247;51.540;5.854;2022-10-16T07:14:49;1.90;;;1.27;;
75035;SDS011;64247;51.540;5.854;2022-10-16T07:16:52;2.40;;;1.48;;
75035;SDS011;64247;51.540;5.854;2022-10-16T07:18:53;1.42;;;1.20;;
75035;SDS011;64247;51.540;5.854;2022-10-16T07:23:37;2.45;;;1.27;;
75035;SDS011;64247;51.540;5.854;2022-10-16T07:25:38;3.28;;;1.67;;
75035;SDS011;64247;51.540;5.854;2022-10-16T07:27:39;1.00;;;0.98;;
75035;SDS011;64247;51.540;5.854;2022-10-16T07:29:40;2.22;;;1.77;;
75035;SDS011;64247;51.540;5.854;2022-10-16T07:31:41;2.22;;;1.27;;
75035;SDS011;64247;51.540;5.854;2022-10-16T07:33:43;3.17;;;1.52;;
75035;SDS011;64247;51.540;5.854;2022-10-16T07:35:49;2.05;;;1.63;;
75035;SDS011;64247;51.540;5.854;2022-10-16T07:37:54;2.10;;;1.58;;
75035;SDS011;64247;51.540;5.854;2022-10-16T07:39:55;1.50;;;1.40;;
75035;SDS011;64247;51.540;5.854;2022-10-16T07:41:56;3.85;;;1.58;;
75035;SDS011;64247;51.540;5.854;2022-10-16T07:43:57;2.05;;;1.20;;
75035;SDS011;64247;51.540;5.854;2022-10-16T07:46:00;1.83;;;1.40;;
75035;SDS011;64247;51.540;5.854;2022-10-16T07:48:01;1.70;;;1.23;;
75035;SDS011;64247;51.540;5.854;2022-10-16T07:50:02;1.40;;;1.30;;
75035;SDS011;64247;51.540;5.854;2022-10-16T07:52:04;2.15;;;1.10;;
75035;SDS011;64247;51.540;5.854;2022-10-16T07:54:05;3.78;;;1.50;;
75035;SDS011;64247;51.540;5.854;2022-10-16T07:56:06;4.00;;;1.55;;
75035;SDS011;64247;51.540;5.854;2022-10-16T07:58:08;2.45;;;1.50;;
75035;SDS011;64247;51.540;5.854;2022-10-16T08:00:09;3.13;;;1.35;;
75035;SDS011;64247;51.540;5.854;2022-10-16T08:02:14;2.83;;;1.23;;
75035;SDS011;64247;51.540;5.854;2022-10-16T08:04:14;4.10;;;1.35;;
75035;SDS011;64247;51.540;5.854;2022-10-16T08:06:16;1.23;;;1.13;;
75035;SDS011;64247;51.540;5.854;2022-10-16T08:08:19;2.28;;;1.17;;
75035;SDS011;64247;51.540;5.854;2022-10-16T08:10:21;1.58;;;1.10;;
75035;SDS011;64247;51.540;5.854;2022-10-16T08:12:25;1.60;;;1.10;;
75035;SDS011;64247;51.540;5.854;2022-10-16T08:14:26;2.92;;;1.20;;
75035;SDS011;64247;51.540;5.854;2022-10-16T08:16:27;2.67;;;1.25;;
75035;SDS011;64247;51.540;5.854;2022-10-16T08:18:28;1.70;;;1.15;;
75035;SDS011;64247;51.540;5.854;2022-10-16T08:20:29;2.42;;;1.13;;
75035;SDS011;64247;51.540;5.854;2022-10-16T08:22:32;3.42;;;1.65;;
75035;SDS011;64247;51.540;5.854;2022-10-16T08:24:33;1.60;;;1.35;;
75035;SDS011;64247;51.540;5.854;2022-10-16T08:26:35;1.00;;;0.90;;
75035;SDS011;64247;51.540;5.854;2022-10-16T08:28:36;2.47;;;1.25;;
75035;SDS011;64247;51.540;5.854;2022-10-16T08:30:37;1.27;;;1.10;;
75035;SDS011;64247;51.540;5.854;2022-10-16T08:32:38;2.13;;;0.85;;
75035;SDS011;64247;51.540;5.854;2022-10-16T08:34:40;1.45;;;0.90;;
75035;SDS011;64247;51.540;5.854;2022-10-16T08:36:40;0.95;;;0.77;;
75035;SDS011;64247;51.540;5.854;2022-10-16T08:38:41;2.05;;;0.93;;
75035;SDS011;64247;51.540;5.854;2022-10-16T08:40:42;2.25;;;1.13;;
75035;SDS011;64247;51.540;5.854;2022-10-16T08:42:53;1.15;;;1.00;;
75035;SDS011;64247;51.540;5.854;2022-10-16T08:48:50;1.73;;;1.00;;
75035;SDS011;64247;51.540;5.854;2022-10-16T08:50:54;3.45;;;1.20;;
75035;SDS011;64247;51.540;5.854;2022-10-16T08:52:55;1.75;;;1.40;;
75035;SDS011;64247;51.540;5.854;2022-10-16T08:54:57;3.45;;;1.00;;
75035;SDS011;64247;51.540;5.854;2022-10-16T08:57:16;1.60;;;0.80;;
75035;SDS011;64247;51.540;5.854;2022-10-16T08:59:21;2.80;;;1.30;;
75035;SDS011;64247;51.540;5.854;2022-10-16T09:01:23;1.90;;;1.13;;
75035;SDS011;64247;51.540;5.854;2022-10-16T09:09:50;2.00;;;1.00;;
75035;SDS011;64247;51.540;5.854;2022-10-16T09:12:33;1.90;;;0.75;;
75035;SDS011;64247;51.540;5.854;2022-10-16T09:14:47;3.22;;;1.05;;
75035;SDS011;64247;51.540;5.854;2022-10-16T09:18:15;2.70;;;0.55;;
75035;SDS011;64247;51.540;5.854;2022-10-16T09:20:50;1.67;;;0.70;;
75035;SDS011;64247;51.540;5.854;2022-10-16T09:23:18;1.50;;;0.60;;
75035;SDS011;64247;51.540;5.854;2022-10-16T09:25:25;1.10;;;0.88;;
75035;SDS011;64247;51.540;5.854;2022-10-16T09:27:27;3.25;;;0.70;;
75035;SDS011;64247;51.540;5.854;2022-10-16T09:29:28;3.50;;;1.92;;
75035;SDS011;64247;51.540;5.854;2022-10-16T09:31:29;2.58;;;0.70;;
75035;SDS011;64247;51.540;5.854;2022-10-16T09:33:33;3.08;;;0.82;;
75035;SDS011;64247;51.540;5.854;2022-10-16T09:38:05;6.25;;;1.30;;
75035;SDS011;64247;51.540;5.854;2022-10-16T09:40:23;2.55;;;0.90;;
75035;SDS011;64247;51.540;5.854;2022-10-16T09:42:37;1.00;;;0.60;;
75035;SDS011;64247;51.540;5.854;2022-10-16T09:44:38;1.67;;;0.73;;
75035;SDS011;64247;51.540;5.854;2022-10-16T09:46:40;1.67;;;0.93;;
75035;SDS011;64247;51.540;5.854;2022-10-16T09:48:44;2.85;;;1.00;;
75035;SDS011;64247;51.540;5.854;2022-10-16T09:50:59;3.53;;;0.95;;
75035;SDS011;64247;51.540;5.854;2022-10-16T09:53:13;1.45;;;0.80;;
75035;SDS011;64247;51.540;5.854;2022-10-16T09:55:18;2.72;;;0.80;;
75035;SDS011;64247;51.540;5.854;2022-10-16T09:57:19;5.10;;;0.70;;
75035;SDS011;64247;51.540;5.854;2022-10-16T09:59:22;1.95;;;1.02;;
75035;SDS011;64247;51.540;5.854;2022-10-16T10:01:34;2.78;;;0.90;;
75035;SDS011;64247;51.540;5.854;2022-10-16T10:03:40;4.03;;;0.57;;
75035;SDS011;64247;51.540;5.854;2022-10-16T10:05:47;1.33;;;0.63;;
75035;SDS011;64247;51.540;5.854;2022-10-16T10:10:28;0.95;;;0.57;;
75035;SDS011;64247;51.540;5.854;2022-10-16T10:12:32;3.97;;;1.10;;
75035;SDS011;64247;51.540;5.854;2022-10-16T10:14:39;2.40;;;0.70;;
75035;SDS011;64247;51.540;5.854;2022-10-16T10:16:47;2.90;;;0.73;;
75035;SDS011;64247;51.540;5.854;2022-10-16T10:18:57;4.70;;;1.00;;
75035;SDS011;64247;51.540;5.854;2022-10-16T10:21:00;4.53;;;1.45;;
75035;SDS011;64247;51.540;5.854;2022-10-16T10:23:19;4.07;;;0.63;;
75035;SDS011;64247;51.540;5.854;2022-10-16T10:44:21;2.72;;;1.02;;
75035;SDS011;64247;51.540;5.854;2022-10-16T10:46:57;3.70;;;0.80;;
75035;SDS011;64247;51.540;5.854;2022-10-16T10:50:41;4.90;;;0.63;;
75035;SDS011;64247;51.540;5.854;2022-10-16T10:53:00;2.70;;;0.90;;
75035;SDS011;64247;51.540;5.854;2022-10-16T10:55:39;3.78;;;0.90;;
75035;SDS011;64247;51.540;5.854;2022-10-16T11:08:29;3.58;;;1.00;;
75035;SDS011;64247;51.540;5.854;2022-10-16T11:13:57;3.78;;;1.70;;
75035;SDS011;64247;51.540;5.854;2022-10-16T11:21:21;2.83;;;0.77;;
75035;SDS011;64247;51.540;5.854;2022-10-16T11:23:31;1.10;;;1.00;;
75035;SDS011;64247;51.540;5.854;2022-10-16T11:26:02;7.28;;;2.15;;
75035;SDS011;64247;51.540;5.854;2022-10-16T11:28:19;3.78;;;0.80;;
75035;SDS011;64247;51.540;5.854;2022-10-16T11:30:43;3.65;;;1.10;;
75035;SDS011;64247;51.540;5.854;2022-10-16T11:39:20;1.23;;;0.63;;
75035;SDS011;64247;51.540;5.854;2022-10-16T11:43:38;4.88;;;1.55;;
75035;SDS011;64247;51.540;5.854;2022-10-16T11:45:46;4.03;;;1.20;;
75035;SDS011;64247;51.540;5.854;2022-10-16T11:48:04;3.90;;;1.63;;
75035;SDS011;64247;51.540;5.854;2022-10-16T11:56:15;2.58;;;0.98;;
75035;SDS011;64247;51.540;5.854;2022-10-16T11:58:30;3.58;;;1.10;;
75035;SDS011;64247;51.540;5.854;2022-10-16T12:00:50;0.75;;;0.50;;
75035;SDS011;64247;51.540;5.854;2022-10-16T12:03:23;1.73;;;0.70;;
75035;SDS011;64247;51.540;5.854;2022-10-16T12:06:11;1.17;;;0.77;;
75035;SDS011;64247;51.540;5.854;2022-10-16T12:08:40;4.50;;;1.42;;
75035;SDS011;64247;51.540;5.854;2022-10-16T12:10:45;2.25;;;0.63;;
75035;SDS011;64247;51.540;5.854;2022-10-16T12:12:48;3.33;;;0.75;;
75035;SDS011;64247;51.540;5.854;2022-10-16T12:14:58;2.08;;;1.00;;
75035;SDS011;64247;51.540;5.854;2022-10-16T12:17:38;7.50;;;2.10;;
75035;SDS011;64247;51.540;5.854;2022-10-16T12:19:39;4.35;;;1.13;;
75035;SDS011;64247;51.540;5.854;2022-10-16T12:21:40;1.23;;;0.73;;
75035;SDS011;64247;51.540;5.854;2022-10-16T12:23:50;1.23;;;0.90;;
75035;SDS011;64247;51.540;5.854;2022-10-16T12:25:57;3.67;;;0.45;;
75035;SDS011;64247;51.540;5.854;2022-10-16T12:28:05;0.90;;;0.60;;
75035;SDS011;64247;51.540;5.854;2022-10-16T12:30:22;4.07;;;0.82;;
75035;SDS011;64247;51.540;5.854;2022-10-16T12:34:55;2.63;;;1.33;;
75035;SDS011;64247;51.540;5.854;2022-10-16T12:37:41;3.63;;;0.90;;
75035;SDS011;64247;51.540;5.854;2022-10-16T12:39:46;2.33;;;0.80;;
75035;SDS011;64247;51.540;5.854;2022-10-16T12:42:00;1.00;;;0.70;;
75035;SDS011;64247;51.540;5.854;2022-10-16T12:44:20;5.55;;;1.02;;
75035;SDS011;64247;51.540;5.854;2022-10-16T12:48:51;2.75;;;0.60;;
75035;SDS011;64247;51.540;5.854;2022-10-16T12:50:52;3.25;;;0.60;;
75035;SDS011;64247;51.540;5.854;2022-10-16T12:52:53;3.08;;;1.50;;
75035;SDS011;64247;51.540;5.854;2022-10-16T12:54:57;3.47;;;0.50;;
75035;SDS011;64247;51.540;5.854;2022-10-16T13:00:22;5.43;;;0.70;;
75035;SDS011;64247;51.540;5.854;2022-10-16T13:05:56;2.95;;;0.95;;
75035;SDS011;64247;51.540;5.854;2022-10-16T13:25:02;2.80;;;0.82;;
75035;SDS011;64247;51.540;5.854;2022-10-16T13:30:17;1.95;;;0.70;;
75035;SDS011;64247;51.540;5.854;2022-10-16T13:32:31;3.40;;;0.73;;
75035;SDS011;64247;51.540;5.854;2022-10-16T13:34:32;4.05;;;0.75;;
75035;SDS011;64247;51.540;5.854;2022-10-16T13:36:42;2.80;;;0.88;;
75035;SDS011;64247;51.540;5.854;2022-10-16T13:38:47;1.95;;;0.77;;
75035;SDS011;64247;51.540;5.854;2022-10-16T13:43:19;3.28;;;0.82;;
75035;SDS011;64247;51.540;5.854;2022-10-16T13:45:28;2.38;;;0.85;;
75035;SDS011;64247;51.540;5.854;2022-10-16T13:47:29;2.80;;;1.02;;
75035;SDS011;64247;51.540;5.854;2022-10-16T13:49:30;2.85;;;0.80;;
75035;SDS011;64247;51.540;5.854;2022-10-16T13:51:31;1.20;;;0.63;;
75035;SDS011;64247;51.540;5.854;2022-10-16T13:53:34;1.45;;;0.85;;
75035;SDS011;64247;51.540;5.854;2022-10-16T13:55:36;3.20;;;0.85;;
75035;SDS011;64247;51.540;5.854;2022-10-16T13:57:37;2.78;;;0.93;;
75035;SDS011;64247;51.540;5.854;2022-10-16T13:59:38;3.03;;;1.17;;
75035;SDS011;64247;51.540;5.854;2022-10-16T14:01:40;4.22;;;0.60;;
75035;SDS011;64247;51.540;5.854;2022-10-16T14:03:44;2.08;;;0.95;;
75035;SDS011;64247;51.540;5.854;2022-10-16T14:05:48;4.18;;;0.65;;
75035;SDS011;64247;51.540;5.854;2022-10-16T14:07:53;2.85;;;1.05;;
75035;SDS011;64247;51.540;5.854;2022-10-16T14:09:58;4.40;;;0.80;;
75035;SDS011;64247;51.540;5.854;2022-10-16T14:12:08;2.72;;;0.73;;
75035;SDS011;64247;51.540;5.854;2022-10-16T14:14:12;3.70;;;1.13;;
75035;SDS011;64247;51.540;5.854;2022-10-16T14:16:16;3.03;;;0.73;;
75035;SDS011;64247;51.540;5.854;2022-10-16T14:18:24;2.25;;;0.85;;
75035;SDS011;64247;51.540;5.854;2022-10-16T14:20:28;0.98;;;0.60;;
75035;SDS011;64247;51.540;5.854;2022-10-16T14:22:37;1.77;;;0.70;;
75035;SDS011;64247;51.540;5.854;2022-10-16T14:24:41;1.52;;;0.98;;
75035;SDS011;64247;51.540;5.854;2022-10-16T14:26:42;1.85;;;0.60;;
75035;SDS011;64247;51.540;5.854;2022-10-16T14:28:45;1.65;;;0.70;;
75035;SDS011;64247;51.540;5.854;2022-10-16T14:30:52;1.08;;;0.70;;
75035;SDS011;64247;51.540;5.854;2022-10-16T14:33:40;2.10;;;0.50;;
75035;SDS011;64247;51.540;5.854;2022-10-16T14:35:41;2.60;;;1.10;;
75035;SDS011;64247;51.540;5.854;2022-10-16T14:37:44;3.30;;;0.70;;
75035;SDS011;64247;51.540;5.854;2022-10-16T14:39:48;1.25;;;0.60;;
75035;SDS011;64247;51.540;5.854;2022-10-16T14:41:51;2.17;;;0.60;;
75035;SDS011;64247;51.540;5.854;2022-10-16T14:44:03;3.63;;;0.70;;
75035;SDS011;64247;51.540;5.854;2022-10-16T14:46:21;3.35;;;0.50;;
75035;SDS011;64247;51.540;5.854;2022-10-16T14:48:32;2.35;;;0.80;;